Strona główna
METAR-TAF:

METAR-TAF

Lotnisko :

Port lotniczy Chicago-Midway

Chicago, Illinois, Stany Zjednoczone

Szerokość geograficzna: 41-47-03N, Długość geograficzna: 087-45-19W, wysokość: 188 m

Aktualna obserwacja pogody

Raport powstał 25 minut temu, godzina 05:53 UTC
Wiatr 13 kt od zachód w porywach dochodzący do 21 kt
Temperatura -4°C
Wilgotność 74%
Ciśnienie 1011 hPa
Widzialność: 16.1 km
Zachmurzenie całkowite na wysokości 2000 ft
słaby śnieg

METAR: KMDW 100553Z 27013G21KT 10SM -SN OVC020 M04/M08 A2985 RMK AO2 PK WND 27027/0536 SLP117 P0000 60000 T10391083 10033 21039 400941039 51044

czas: 00:18 (06:18 UTC)

Prognoza

Raport powstał 46 minut temu, godzina 05:32 UTC
Prognoza ważna od 10 godzina 06 UTC do 11 godzina 12 UTC
Wiatr 14 kt od zachodnio-północny zachód w porywach dochodzący do 22 kt
Widzialność: 10 km
Zachmurzenie całkowite na wysokości 1800 ft
Od 10 godzina 1100 UTC
Wiatr 12 kt od zachód
Widzialność: 10 km
bezchmurnie

TAF: KMDW 100532Z 1006/1112 29014G22KT P6SM OVC018 FM101100 27012KT P6SM SKC

Obserwacja i prognoza pogody dla ponad 4000 lotnisk (raport METAR i TAF).

Dostępne stacje oznaczono żółtymi i czerwonymi punktami na mapie.

Najedź kursorem aby zobaczyć nazwę stacji.

Kliknij aby zobaczyć obserwacje i prognozy pogody.

Aby zmienić mapę: kliknij na zielony przycisk z czarnym krzyżykiem, aby powiększyć; na zielony przycisk z myślnikiem, aby pomniejszyć; na zielone strzałki, aby przejść do map sąsiednich.


METAR-TAF: